createdAt,value
2018-06-05T00:02:28.093Z,32.63
2018-06-05T00:04:56.188Z,33.73
2018-06-05T00:07:24.288Z,36.77
2018-06-05T00:09:52.401Z,37.17
2018-06-05T00:12:20.471Z,33.57
2018-06-05T00:14:48.844Z,35.43
2018-06-05T00:17:16.900Z,36.00
2018-06-05T00:19:44.954Z,37.13
2018-06-05T00:22:13.015Z,34.57
2018-06-05T00:24:41.908Z,34.97
2018-06-05T00:27:10.283Z,35.30
2018-06-05T00:29:38.387Z,36.07
2018-06-05T00:32:06.618Z,36.40
2018-06-05T00:34:34.731Z,37.10
2018-06-05T00:37:02.852Z,32.60
2018-06-05T00:39:31.021Z,36.13
2018-06-05T00:41:59.189Z,39.43
2018-06-05T00:44:27.665Z,40.63
2018-06-05T00:46:55.832Z,38.47
2018-06-05T00:49:23.937Z,38.27
2018-06-05T00:52:03.336Z,36.50
2018-06-05T00:54:31.597Z,39.43
2018-06-05T00:56:59.873Z,37.23
2018-06-05T00:59:28.050Z,36.17
2018-06-05T01:01:56.135Z,37.80
2018-06-05T01:04:24.162Z,35.87
2018-06-05T01:06:52.204Z,36.43
2018-06-05T01:09:20.279Z,35.30
2018-06-05T01:11:48.331Z,36.13
2018-06-05T01:14:16.439Z,36.30
2018-06-05T01:16:44.507Z,35.47
2018-06-05T01:19:12.552Z,34.63
2018-06-05T01:21:40.583Z,34.23
2018-06-05T01:24:08.789Z,33.77
2018-06-05T01:26:36.867Z,32.37
2018-06-05T01:29:05.064Z,34.13
2018-06-05T01:31:33.318Z,36.07
2018-06-05T01:34:09.292Z,36.07
2018-06-05T01:36:37.335Z,34.50
2018-06-05T01:39:08.501Z,34.80
2018-06-05T01:41:36.978Z,35.80
2018-06-05T01:44:05.155Z,36.23
2018-06-05T01:46:33.187Z,39.07
2018-06-05T01:49:01.223Z,38.47
2018-06-05T01:51:29.276Z,40.60
2018-06-05T01:53:57.323Z,36.60
2018-06-05T01:56:25.346Z,38.17
2018-06-05T01:58:53.411Z,41.73
2018-06-05T02:01:21.467Z,47.67
2018-06-05T02:03:49.479Z,43.13
2018-06-05T02:06:17.521Z,53.67
2018-06-05T02:08:45.900Z,46.90
2018-06-05T02:11:13.985Z,52.73
2018-06-05T02:13:42.047Z,53.77
2018-06-05T02:16:10.183Z,58.93
2018-06-05T02:18:38.304Z,66.40
2018-06-05T02:21:06.453Z,71.23
2018-06-05T02:23:34.641Z,72.87
2018-06-05T02:26:02.763Z,76.13
2018-06-05T02:28:30.952Z,72.63
2018-06-05T02:30:59.221Z,68.20
2018-06-05T02:33:27.375Z,73.37
2018-06-05T02:35:55.504Z,83.03
2018-06-05T02:38:23.556Z,83.07
2018-06-05T02:40:53.060Z,87.93
2018-06-05T02:43:21.527Z,91.47
2018-06-05T02:45:50.168Z,92.53
2018-06-05T02:48:18.232Z,91.30
2018-06-05T02:50:46.295Z,88.13
2018-06-05T02:53:14.344Z,93.70
2018-06-05T02:55:42.389Z,92.87
2018-06-05T02:58:10.407Z,93.57
2018-06-05T03:00:38.450Z,86.53
2018-06-05T03:03:06.507Z,86.87
2018-06-05T03:05:34.555Z,91.13
2018-06-05T03:08:02.607Z,95.13
2018-06-05T03:10:30.650Z,90.73
2018-06-05T03:12:58.690Z,92.33
2018-06-05T03:15:26.716Z,91.97
2018-06-05T03:17:54.788Z,91.87
2018-06-05T03:20:22.806Z,99.30
2018-06-05T03:22:50.862Z,98.00
2018-06-05T03:25:18.898Z,99.83
2018-06-05T03:27:46.952Z,100.23
2018-06-05T03:30:15.255Z,102.77
2018-06-05T03:32:43.324Z,93.73
2018-06-05T03:35:11.352Z,91.43
2018-06-05T03:37:39.435Z,97.73
2018-06-05T03:40:07.804Z,107.83
2018-06-05T03:42:35.937Z,95.63
2018-06-05T03:45:04.044Z,97.97
2018-06-05T03:47:32.227Z,99.50
2018-06-05T03:50:00.409Z,97.50
2018-06-05T03:52:28.646Z,105.40
2018-06-05T03:54:56.907Z,92.07
2018-06-05T03:57:24.931Z,90.20
2018-06-05T03:59:52.960Z,93.77
2018-06-05T04:02:21.001Z,92.47
2018-06-05T04:04:49.030Z,87.97
2018-06-05T04:07:17.071Z,91.13
2018-06-05T04:09:45.107Z,93.27
2018-06-05T04:12:13.134Z,88.77
2018-06-05T04:14:41.180Z,84.50
2018-06-05T04:17:09.223Z,78.00
2018-06-05T04:19:37.268Z,81.07
2018-06-05T04:22:05.307Z,85.27
2018-06-05T04:24:33.348Z,80.47
2018-06-05T04:27:01.724Z,76.13
2018-06-05T04:29:29.743Z,82.73
2018-06-05T04:31:57.774Z,75.87
2018-06-05T04:34:25.811Z,81.43
2018-06-05T04:36:53.840Z,69.67
2018-06-05T04:39:21.886Z,67.10
2018-06-05T04:41:49.916Z,66.30
2018-06-05T04:44:17.938Z,67.90
2018-06-05T04:46:45.995Z,65.47
2018-06-05T04:49:14.035Z,73.63
2018-06-05T04:51:42.100Z,69.17
2018-06-05T04:54:10.183Z,72.53
2018-06-05T04:56:38.541Z,70.90
2018-06-05T04:59:06.702Z,70.63
2018-06-05T05:01:34.807Z,63.47
2018-06-05T05:04:02.989Z,69.63
2018-06-05T05:06:31.156Z,67.23
2018-06-05T05:08:59.321Z,63.00
2018-06-05T05:11:27.481Z,65.07
2018-06-05T05:13:55.580Z,60.77
2018-06-05T05:16:23.766Z,58.97
2018-06-05T05:18:51.976Z,52.53
2018-06-05T05:21:20.020Z,51.60
2018-06-05T05:23:48.066Z,51.60
2018-06-05T05:26:16.090Z,47.90
2018-06-05T05:28:44.147Z,47.03
2018-06-05T05:31:12.194Z,46.17
2018-06-05T05:33:40.267Z,46.53
2018-06-05T05:36:08.295Z,39.63
2018-06-05T05:38:36.340Z,43.30
2018-06-05T05:41:04.388Z,38.27
2018-06-05T05:43:32.435Z,38.57
2018-06-05T05:46:00.512Z,38.67
2018-06-05T05:48:28.537Z,38.73
2018-06-05T05:50:56.579Z,38.17
2018-06-05T05:53:24.619Z,40.43
2018-06-05T05:55:52.984Z,39.67
2018-06-05T05:58:21.028Z,40.50
2018-06-05T06:00:49.079Z,41.80
2018-06-05T06:03:17.176Z,40.50
2018-06-05T06:05:45.286Z,40.40
2018-06-05T06:08:13.355Z,36.70
2018-06-05T06:10:41.465Z,36.63
2018-06-05T06:13:09.532Z,36.87
2018-06-05T06:15:37.628Z,39.83
2018-06-05T06:18:05.744Z,46.07
2018-06-05T06:20:33.881Z,42.13
2018-06-05T06:23:01.923Z,45.47
2018-06-05T06:25:30.517Z,45.40
2018-06-05T06:27:58.563Z,54.27
2018-06-05T06:30:26.615Z,41.50
2018-06-05T06:32:54.699Z,46.87
2018-06-05T06:35:22.784Z,51.27
2018-06-05T06:37:50.861Z,48.07
2018-06-05T06:40:18.901Z,50.13
2018-06-05T06:42:46.939Z,44.07
2018-06-05T06:45:15.003Z,40.10
2018-06-05T06:47:43.048Z,43.27
2018-06-05T06:50:11.343Z,49.80
2018-06-05T06:52:39.399Z,42.63
2018-06-05T06:55:07.435Z,49.53
2018-06-05T06:57:35.542Z,47.67
2018-06-05T07:00:03.678Z,57.30
2018-06-05T07:02:31.811Z,64.60
2018-06-05T07:04:59.863Z,61.33
2018-06-05T07:07:28.027Z,69.77
2018-06-05T07:09:56.092Z,72.47
2018-06-05T07:12:27.176Z,79.00
2018-06-05T07:14:55.244Z,80.80
2018-06-05T07:17:23.311Z,88.23
2018-06-05T07:19:51.360Z,88.93
2018-06-05T07:22:19.463Z,100.33
2018-06-05T07:24:47.575Z,102.53
2018-06-05T07:27:15.624Z,102.47
2018-06-05T07:29:43.649Z,95.87
2018-06-05T07:32:11.695Z,99.53
2018-06-05T07:34:39.750Z,104.37
2018-06-05T07:37:07.771Z,107.83
2018-06-05T07:39:35.827Z,95.17
2018-06-05T07:42:03.868Z,103.60
2018-06-05T07:44:31.940Z,97.00
2018-06-05T07:46:59.991Z,97.43
2018-06-05T07:49:28.074Z,106.00
2018-06-05T07:51:56.087Z,99.50
2018-06-05T07:54:24.231Z,103.47
2018-06-05T07:56:52.279Z,107.47
2018-06-05T07:59:20.314Z,101.37
2018-06-05T08:01:48.558Z,93.63
2018-06-05T08:04:16.640Z,93.10
2018-06-05T08:06:44.692Z,90.87
2018-06-05T08:09:12.932Z,100.07
2018-06-05T08:11:41.147Z,100.40
2018-06-05T08:14:09.422Z,94.60
2018-06-05T08:16:37.471Z,101.43
2018-06-05T08:19:05.539Z,101.50
2018-06-05T08:21:33.587Z,100.53
2018-06-05T08:24:01.671Z,102.03
2018-06-05T08:26:42.473Z,98.77
2018-06-05T08:29:10.541Z,98.93
2018-06-05T08:31:38.919Z,94.90
2018-06-05T08:34:07.014Z,90.70
2018-06-05T08:36:35.168Z,98.33
2018-06-05T08:39:03.448Z,100.50
2018-06-05T08:41:31.799Z,101.03
2018-06-05T08:44:00.097Z,99.07
2018-06-05T08:46:28.439Z,105.10
2018-06-05T08:48:56.520Z,98.80
2018-06-05T08:51:24.791Z,96.00
2018-06-05T08:53:52.924Z,102.40
2018-06-05T08:56:20.991Z,100.43
2018-06-05T08:58:49.051Z,104.27
2018-06-05T09:01:17.123Z,97.37
2018-06-05T09:03:45.180Z,97.03
2018-06-05T09:06:13.257Z,95.20
2018-06-05T09:08:41.319Z,95.67
2018-06-05T09:11:09.404Z,98.23
2018-06-05T09:13:37.536Z,92.23
2018-06-05T09:16:05.664Z,91.90
2018-06-05T09:18:33.816Z,92.00
2018-06-05T09:21:02.081Z,97.00
2018-06-05T09:23:30.729Z,91.17
2018-06-05T09:25:58.980Z,90.07
2018-06-05T09:28:27.077Z,91.23
2018-06-05T09:30:55.285Z,98.87
2018-06-05T09:33:23.399Z,89.70
2018-06-05T09:35:51.519Z,94.30
2018-06-05T09:38:19.572Z,84.97
2018-06-05T09:40:47.623Z,87.67
2018-06-05T09:43:15.696Z,86.80
2018-06-05T09:45:43.739Z,89.27
2018-06-05T09:48:12.132Z,90.57
2018-06-05T09:50:44.376Z,89.20
2018-06-05T09:53:12.483Z,90.33
2018-06-05T09:55:40.605Z,89.70
2018-06-05T09:58:08.907Z,89.37
2018-06-05T10:00:42.354Z,94.97
2018-06-05T10:03:10.601Z,99.60
2018-06-05T10:05:38.684Z,89.70
2018-06-05T10:08:06.813Z,93.47
2018-06-05T10:10:34.931Z,95.13
2018-06-05T10:13:02.996Z,90.67
2018-06-05T10:15:31.047Z,84.67
2018-06-05T10:17:59.079Z,80.13
2018-06-05T10:20:27.132Z,79.00
2018-06-05T10:22:55.159Z,81.00
2018-06-05T10:25:23.196Z,82.70
2018-06-05T10:27:51.259Z,75.33
2018-06-05T10:30:19.272Z,83.80
2018-06-05T10:32:47.591Z,73.83
2018-06-05T10:35:15.627Z,75.10
2018-06-05T10:37:43.682Z,77.83
2018-06-05T10:40:12.218Z,79.83
2018-06-05T10:42:40.243Z,79.63
2018-06-05T10:45:08.384Z,74.10
2018-06-05T10:47:36.554Z,76.63
2018-06-05T10:50:04.684Z,75.45
2018-06-05T10:52:34.025Z,79.97
2018-06-05T10:55:02.334Z,74.20
2018-06-05T10:57:30.529Z,74.42
2018-06-05T10:59:59.024Z,82.10
2018-06-05T11:02:27.104Z,82.92
2018-06-05T11:04:55.241Z,79.65
2018-06-05T11:07:23.303Z,85.40
2018-06-05T11:09:51.363Z,86.80
2018-06-05T11:12:19.431Z,77.37
2018-06-05T11:14:47.469Z,76.72
2018-06-05T11:17:15.562Z,87.75
2018-06-05T11:19:43.612Z,87.45
2018-06-05T11:22:11.663Z,79.07
2018-06-05T11:24:39.712Z,82.78
2018-06-05T11:27:07.751Z,89.03
2018-06-05T11:29:35.794Z,76.47
2018-06-05T11:32:03.831Z,81.12
2018-06-05T11:34:31.886Z,81.08
2018-06-05T11:36:59.917Z,70.52
2018-06-05T11:39:27.960Z,70.15
2018-06-05T11:41:56.446Z,69.32
2018-06-05T11:44:24.489Z,69.77
2018-06-05T11:46:52.609Z,64.80
2018-06-05T11:49:20.655Z,62.45
2018-06-05T11:51:48.708Z,67.00
2018-06-05T11:54:16.815Z,65.20
2018-06-05T11:56:44.823Z,59.98
2018-06-05T11:59:12.852Z,55.55
2018-06-05T12:01:40.893Z,50.25
2018-06-05T12:04:08.911Z,51.50
2018-06-05T12:06:36.963Z,50.00
2018-06-05T12:09:07.264Z,51.53
2018-06-05T12:11:35.368Z,49.20
2018-06-05T12:14:03.667Z,48.92
2018-06-05T12:16:31.724Z,50.65
2018-06-05T12:18:59.772Z,48.80
2018-06-05T12:21:27.840Z,44.63
2018-06-05T12:23:55.898Z,48.98
2018-06-05T12:26:23.981Z,49.53
2018-06-05T12:28:52.014Z,47.98
2018-06-05T12:31:20.044Z,42.70
2018-06-05T12:33:48.099Z,44.60
2018-06-05T12:36:16.142Z,45.03
2018-06-05T12:38:44.213Z,47.73
2018-06-05T12:41:12.275Z,41.73
2018-06-05T12:43:40.344Z,40.25
2018-06-05T12:46:08.399Z,41.77
2018-06-05T12:48:36.452Z,41.80
2018-06-05T12:51:04.496Z,43.73
2018-06-05T12:53:32.526Z,41.28
2018-06-05T12:56:00.585Z,42.23
2018-06-05T12:58:28.836Z,40.30
2018-06-05T13:00:56.944Z,37.10
2018-06-05T13:03:25.036Z,44.67
2018-06-05T13:05:53.176Z,38.50
2018-06-05T13:08:21.259Z,39.18
2018-06-05T13:10:49.301Z,40.70
2018-06-05T13:13:17.363Z,39.05
2018-06-05T13:15:45.404Z,38.95
2018-06-05T13:18:13.429Z,42.48
2018-06-05T13:20:41.552Z,34.90
2018-06-05T13:23:09.692Z,36.77
2018-06-05T13:25:37.738Z,37.13
2018-06-05T13:28:06.025Z,35.17
2018-06-05T13:30:34.596Z,34.33
2018-06-05T13:33:02.783Z,32.95
2018-06-05T13:35:30.909Z,36.48
2018-06-05T13:37:59.074Z,36.90
2018-06-05T13:40:27.187Z,36.80
2018-06-05T13:42:55.724Z,36.30
2018-06-05T13:45:23.775Z,33.83
2018-06-05T13:47:51.810Z,35.55
2018-06-05T13:50:19.880Z,35.63
2018-06-05T13:52:47.940Z,35.60
2018-06-05T13:55:15.979Z,38.95
2018-06-05T13:57:44.054Z,35.78
2018-06-05T14:00:12.088Z,36.88
2018-06-05T14:02:40.152Z,34.25
2018-06-05T14:05:08.240Z,34.05
2018-06-05T14:07:36.271Z,34.55
2018-06-05T14:10:04.307Z,32.30
2018-06-05T14:12:32.348Z,33.20
2018-06-05T14:15:00.376Z,32.10
2018-06-05T14:17:28.443Z,35.88
2018-06-05T14:19:56.467Z,32.40
2018-06-05T14:22:24.516Z,36.53
2018-06-05T14:24:52.546Z,32.88
2018-06-05T14:27:20.575Z,32.15
2018-06-05T14:29:48.886Z,33.25
2018-06-05T14:32:16.947Z,34.85
2018-06-05T14:34:45.000Z,32.17
2018-06-05T14:37:13.039Z,34.20
2018-06-05T14:39:41.081Z,34.98
2018-06-05T14:42:09.108Z,27.67
2018-06-05T14:44:37.139Z,33.48
2018-06-05T14:47:05.167Z,32.42
2018-06-05T14:49:33.447Z,32.73
2018-06-05T14:52:01.472Z,34.08
2018-06-05T14:54:30.121Z,31.23
2018-06-05T14:56:58.239Z,32.17
2018-06-05T14:59:26.287Z,35.60
2018-06-05T15:01:54.345Z,31.45
2018-06-05T15:04:22.379Z,28.25
2018-06-05T15:06:50.628Z,32.67
2018-06-05T15:09:18.677Z,29.80
2018-06-05T15:11:46.905Z,25.35
2018-06-05T15:14:15.705Z,31.52
2018-06-05T15:16:43.784Z,31.68
2018-06-05T15:19:13.891Z,29.48
2018-06-05T15:21:41.938Z,30.70
2018-06-05T15:24:10.180Z,30.50
2018-06-05T15:26:38.301Z,32.17
2018-06-05T15:29:07.625Z,28.55
2018-06-05T15:31:35.742Z,30.95
2018-06-05T15:34:04.103Z,27.93
2018-06-05T15:36:32.365Z,28.60
2018-06-05T15:39:00.544Z,28.42
2018-06-05T15:41:29.145Z,29.37
2018-06-05T15:43:57.373Z,30.80
2018-06-05T15:46:25.488Z,28.00
2018-06-05T15:48:53.571Z,27.17
2018-06-05T15:51:22.203Z,30.95
2018-06-05T15:53:50.376Z,26.87
2018-06-05T15:56:18.432Z,27.98
2018-06-05T15:58:46.497Z,27.98
2018-06-05T16:01:15.032Z,27.58
2018-06-05T16:03:43.309Z,29.50
2018-06-05T16:06:11.384Z,26.17
2018-06-05T16:08:39.548Z,27.73
2018-06-05T16:11:07.751Z,25.00
2018-06-05T16:13:35.855Z,24.92
2018-06-05T16:16:04.280Z,24.82
2018-06-05T16:18:33.376Z,26.48
2018-06-05T16:21:02.391Z,22.05
2018-06-05T16:23:30.918Z,24.95
2018-06-05T16:25:59.142Z,24.98
2018-06-05T16:28:28.870Z,23.25
2018-06-05T16:30:56.954Z,22.60
2018-06-05T16:33:25.327Z,22.20
2018-06-05T16:35:53.355Z,22.50
2018-06-05T16:38:21.380Z,22.70
2018-06-05T16:40:49.422Z,25.00
2018-06-05T16:43:17.459Z,24.32
2018-06-05T16:45:45.506Z,22.62
2018-06-05T16:48:13.564Z,23.20
2018-06-05T16:50:41.595Z,24.18
2018-06-05T16:53:09.636Z,22.82
2018-06-05T16:55:37.805Z,23.70
2018-06-05T16:58:05.927Z,21.20
2018-06-05T17:00:34.073Z,22.90
2018-06-05T17:03:02.417Z,26.60
2018-06-05T17:05:30.667Z,27.37
2018-06-05T17:07:58.874Z,21.97
2018-06-05T17:10:26.917Z,23.65
2018-06-05T17:12:55.072Z,21.60
2018-06-05T17:15:23.127Z,20.90
2018-06-05T17:17:51.208Z,22.85
2018-06-05T17:20:19.250Z,21.90
2018-06-05T17:22:47.340Z,20.70
2018-06-05T17:25:15.380Z,22.37
2018-06-05T17:27:43.429Z,23.77
2018-06-05T17:30:11.967Z,22.67
2018-06-05T17:32:40.277Z,23.80
2018-06-05T17:35:08.410Z,25.62
2018-06-05T17:37:36.521Z,21.37
2018-06-05T17:40:04.686Z,22.93
2018-06-05T17:42:32.880Z,22.22
2018-06-05T17:45:01.128Z,25.68
2018-06-05T17:47:29.308Z,22.15
2018-06-05T17:49:57.447Z,19.07
2018-06-05T17:52:25.638Z,18.67
2018-06-05T17:54:53.738Z,19.20
2018-06-05T17:57:21.887Z,19.35
2018-06-05T17:59:49.922Z,18.05
2018-06-05T18:02:17.999Z,21.60
2018-06-05T18:04:46.036Z,18.00
2018-06-05T18:07:14.089Z,18.50
2018-06-05T18:09:42.100Z,17.92
2018-06-05T18:12:10.175Z,17.40
2018-06-05T18:14:38.224Z,18.48
2018-06-05T18:17:06.806Z,17.37
2018-06-05T18:19:35.547Z,16.73
2018-06-05T18:22:03.948Z,19.40
2018-06-05T18:24:32.577Z,16.77
2018-06-05T18:27:01.292Z,17.90
2018-06-05T18:29:30.264Z,16.40
2018-06-05T18:31:59.617Z,17.07
2018-06-05T18:34:27.792Z,17.02
2018-06-05T18:36:55.875Z,15.98
2018-06-05T18:39:24.199Z,17.40
2018-06-05T18:41:52.604Z,17.98
2018-06-05T18:44:21.313Z,16.53
2018-06-05T18:46:49.964Z,17.73
2018-06-05T18:49:19.689Z,18.12
2018-06-05T18:51:48.382Z,17.90
2018-06-05T18:54:17.107Z,16.42
2018-06-05T18:56:45.905Z,17.17
2018-06-05T18:59:13.398Z,17.73
2018-06-05T19:01:41.889Z,16.87
2018-06-05T19:04:10.571Z,16.37
2018-06-05T19:06:39.125Z,17.00
2018-06-05T19:09:09.211Z,16.23
2018-06-05T19:11:39.220Z,18.27
2018-06-05T19:14:08.462Z,16.90
2018-06-05T19:16:36.938Z,18.17
2018-06-05T19:19:05.536Z,15.38
2018-06-05T19:21:33.796Z,14.83
2018-06-05T19:24:01.876Z,16.87
2018-06-05T19:26:29.915Z,17.50
2018-06-05T19:28:58.105Z,18.80
2018-06-05T19:31:26.703Z,15.27
2018-06-05T19:33:54.843Z,15.83
2018-06-05T19:36:22.894Z,17.10
2018-06-05T19:38:50.983Z,16.70
2018-06-05T19:41:19.029Z,16.07
2018-06-05T19:43:50.275Z,13.73
2018-06-05T19:46:18.353Z,14.00
2018-06-05T19:48:48.145Z,17.80
2018-06-05T19:51:16.528Z,16.30
2018-06-05T19:53:44.563Z,15.73
2018-06-05T19:56:15.964Z,14.97
2018-06-05T19:58:44.159Z,14.97
2018-06-05T20:01:12.353Z,15.37
2018-06-05T20:03:41.622Z,19.17
2018-06-05T20:06:14.494Z,16.53
2018-06-05T20:08:42.644Z,16.80
2018-06-05T20:11:10.693Z,17.50
2018-06-05T20:13:38.961Z,19.20
2018-06-05T20:16:07.169Z,18.53
2018-06-05T20:18:35.556Z,15.63
2018-06-05T20:21:04.552Z,16.87
2018-06-05T20:23:32.933Z,17.87
2018-06-05T20:26:01.261Z,19.23
2018-06-05T20:28:29.601Z,18.13
2018-06-05T20:30:57.738Z,18.70
2018-06-05T20:33:26.151Z,18.97
2018-06-05T20:35:54.255Z,19.23
2018-06-05T20:38:22.321Z,18.10
2018-06-05T20:40:51.452Z,16.10
2018-06-05T20:43:19.498Z,38.93
2018-06-05T20:45:47.680Z,38.13
2018-06-05T20:48:15.788Z,22.27
2018-06-05T20:50:43.856Z,21.33
2018-06-05T20:53:12.192Z,19.77
2018-06-05T20:55:40.255Z,32.90
2018-06-05T20:58:08.335Z,21.63
2018-06-05T21:00:36.506Z,24.90
2018-06-05T21:03:05.183Z,18.47
2018-06-05T21:05:33.633Z,22.93
2018-06-05T21:08:01.872Z,24.57
2018-06-05T21:10:30.058Z,27.07
2018-06-05T21:12:58.615Z,25.50
2018-06-05T21:15:26.747Z,23.60
2018-06-05T21:17:54.844Z,23.97
2018-06-05T21:20:22.935Z,24.73
2018-06-05T21:22:50.995Z,23.37
2018-06-05T21:25:19.484Z,22.83
2018-06-05T21:27:47.545Z,23.97
2018-06-05T21:30:15.586Z,23.87
2018-06-05T21:32:43.643Z,23.23
2018-06-05T21:35:11.756Z,26.50
2018-06-05T21:37:39.811Z,24.13
2018-06-05T21:40:07.860Z,23.90
2018-06-05T21:42:35.972Z,21.10
2018-06-05T21:45:04.003Z,24.30
2018-06-05T21:47:33.214Z,23.87
2018-06-05T21:50:01.244Z,23.77
2018-06-05T21:52:29.295Z,26.13
2018-06-05T21:54:57.332Z,24.77
2018-06-05T21:57:25.360Z,24.30
2018-06-05T21:59:53.427Z,23.07
2018-06-05T22:02:21.487Z,21.73
2018-06-05T22:04:49.539Z,25.27
2018-06-05T22:07:17.568Z,24.40
2018-06-05T22:09:45.615Z,25.87
2018-06-05T22:12:13.643Z,22.33
2018-06-05T22:14:41.710Z,22.53
2018-06-05T22:17:09.738Z,24.47
2018-06-05T22:19:37.754Z,24.60
2018-06-05T22:22:05.804Z,25.63
2018-06-05T22:24:33.833Z,23.43
2018-06-05T22:27:01.883Z,23.17
2018-06-05T22:29:29.903Z,22.97
2018-06-05T22:31:57.951Z,24.50
2018-06-05T22:34:26.011Z,24.13
2018-06-05T22:36:54.053Z,25.17
2018-06-05T22:39:22.254Z,25.07
2018-06-05T22:41:50.284Z,22.43
2018-06-05T22:44:18.483Z,26.10
2018-06-05T22:46:47.247Z,23.33
2018-06-05T22:49:15.287Z,25.33
2018-06-05T22:51:43.339Z,21.47
2018-06-05T22:54:11.407Z,23.83
2018-06-05T22:56:39.460Z,25.00
2018-06-05T22:59:07.487Z,24.07
2018-06-05T23:01:35.551Z,26.40
2018-06-05T23:04:03.604Z,23.20
2018-06-05T23:06:31.678Z,23.03
2018-06-05T23:08:59.740Z,24.67
2018-06-05T23:11:27.796Z,27.03
2018-06-05T23:13:55.852Z,26.57
2018-06-05T23:16:24.235Z,25.03
2018-06-05T23:18:52.295Z,22.57
2018-06-05T23:21:20.325Z,22.57
2018-06-05T23:23:48.433Z,25.20
2018-06-05T23:26:16.511Z,23.70
2018-06-05T23:28:44.583Z,22.07
2018-06-05T23:31:12.628Z,21.63
2018-06-05T23:33:40.665Z,24.60
2018-06-05T23:36:08.744Z,25.87
2018-06-05T23:38:36.827Z,24.50
2018-06-05T23:41:04.880Z,21.53
2018-06-05T23:43:33.111Z,22.00
2018-06-05T23:46:01.385Z,22.70
2018-06-05T23:48:29.473Z,22.03
2018-06-05T23:50:57.569Z,24.47
2018-06-05T23:53:25.700Z,23.03
2018-06-05T23:55:53.773Z,26.43
2018-06-05T23:58:21.848Z,26.20
